createdAt,value
2018-09-03T00:00:23.551Z,0.40
2018-09-03T00:02:51.618Z,0.60
2018-09-03T00:05:19.694Z,0.60
2018-09-03T00:07:47.790Z,0.60
2018-09-03T00:10:16.243Z,0.33
2018-09-03T00:12:44.335Z,0.40
2018-09-03T00:15:12.406Z,0.50
2018-09-03T00:17:40.474Z,0.50
2018-09-03T00:20:08.550Z,0.40
2018-09-03T00:22:36.620Z,0.40
2018-09-03T00:25:04.812Z,0.60
2018-09-03T00:27:32.876Z,0.40
2018-09-03T00:30:00.938Z,0.50
2018-09-03T00:32:34.570Z,0.40
2018-09-03T00:35:08.267Z,0.50
2018-09-03T00:37:42.066Z,0.57
2018-09-03T00:40:16.170Z,0.57
2018-09-03T00:42:49.652Z,0.53
2018-09-03T00:45:23.154Z,0.40
2018-09-03T00:47:51.220Z,0.40
2018-09-03T00:50:19.285Z,0.40
2018-09-03T00:52:47.359Z,0.40
2018-09-03T00:55:15.451Z,0.40
2018-09-03T00:57:43.531Z,0.50
2018-09-03T01:00:11.602Z,0.50
2018-09-03T01:02:39.685Z,0.40
2018-09-03T01:05:07.746Z,0.57
2018-09-03T01:07:35.816Z,0.40
2018-09-03T01:10:03.903Z,0.40
2018-09-03T01:12:31.975Z,0.50
2018-09-03T01:15:00.043Z,0.30
2018-09-03T01:17:28.392Z,0.40
2018-09-03T01:19:56.450Z,0.50
2018-09-03T01:22:24.555Z,0.40
2018-09-03T01:24:52.630Z,0.50
2018-09-03T01:27:20.711Z,0.50
2018-09-03T01:29:48.774Z,0.67
2018-09-03T01:32:16.875Z,0.47
2018-09-03T01:34:44.958Z,0.43
2018-09-03T01:37:13.060Z,0.30
2018-09-03T01:39:41.167Z,0.50
2018-09-03T01:42:09.238Z,0.40
2018-09-03T01:44:37.307Z,0.50
2018-09-03T01:47:05.409Z,0.50
2018-09-03T01:49:33.474Z,0.47
2018-09-03T01:52:01.557Z,0.50
2018-09-03T01:54:29.627Z,0.40
2018-09-03T01:56:57.707Z,0.40
2018-09-03T01:59:25.815Z,0.50
2018-09-03T02:01:53.912Z,0.50
2018-09-03T02:04:21.990Z,0.50
2018-09-03T02:06:50.154Z,0.33
2018-09-03T02:09:18.235Z,0.40
2018-09-03T02:11:46.331Z,0.50
2018-09-03T02:14:14.386Z,0.50
2018-09-03T02:16:42.451Z,0.50
2018-09-03T02:19:10.529Z,0.50
2018-09-03T02:21:38.591Z,0.30
2018-09-03T02:24:06.663Z,0.40
2018-09-03T02:26:34.714Z,0.50
2018-09-03T02:29:02.788Z,0.40
2018-09-03T02:31:30.859Z,0.40
2018-09-03T02:33:58.915Z,0.60
2018-09-03T02:36:26.979Z,0.50
2018-09-03T02:38:55.042Z,0.50
2018-09-03T02:41:23.122Z,0.70
2018-09-03T02:43:51.198Z,0.40
2018-09-03T02:46:19.259Z,0.37
2018-09-03T02:48:47.311Z,0.40
2018-09-03T02:51:15.363Z,0.50
2018-09-03T02:53:43.416Z,0.40
2018-09-03T02:56:11.494Z,0.50
2018-09-03T02:58:39.574Z,0.43
2018-09-03T03:01:07.636Z,0.60
2018-09-03T03:03:35.699Z,0.60
2018-09-03T03:06:04.016Z,0.50
2018-09-03T03:08:32.250Z,0.83
2018-09-03T03:11:00.294Z,0.60
2018-09-03T03:13:28.366Z,0.70
2018-09-03T03:15:56.415Z,0.40
2018-09-03T03:18:24.506Z,0.53
2018-09-03T03:20:52.559Z,0.40
2018-09-03T03:23:20.623Z,0.50
2018-09-03T03:25:48.703Z,0.50
2018-09-03T03:28:16.782Z,0.50
2018-09-03T03:30:44.847Z,0.40
2018-09-03T03:33:12.915Z,0.30
2018-09-03T03:35:41.001Z,0.40
2018-09-03T03:38:09.081Z,0.40
2018-09-03T03:40:37.127Z,0.40
2018-09-03T03:43:05.196Z,0.40
2018-09-03T03:45:33.279Z,0.40
2018-09-03T03:48:01.326Z,0.50
2018-09-03T03:50:29.392Z,0.40
2018-09-03T03:52:57.451Z,0.53
2018-09-03T03:55:25.504Z,0.50
2018-09-03T03:57:53.578Z,0.33
2018-09-03T04:00:21.630Z,0.40
2018-09-03T04:02:49.687Z,0.60
2018-09-03T04:05:17.742Z,0.50
2018-09-03T04:07:45.814Z,0.67
2018-09-03T04:10:13.875Z,0.37
2018-09-03T04:12:46.225Z,0.40
2018-09-03T04:15:14.291Z,0.60
2018-09-03T04:17:42.340Z,0.50
2018-09-03T04:20:10.407Z,0.60
2018-09-03T04:22:38.467Z,0.57
2018-09-03T04:25:06.547Z,0.40
2018-09-03T04:27:34.630Z,0.30
2018-09-03T04:30:02.695Z,0.50
2018-09-03T04:32:30.756Z,0.50
2018-09-03T04:34:58.815Z,0.40
2018-09-03T04:37:27.163Z,0.40
2018-09-03T04:39:55.498Z,0.40
2018-09-03T04:42:23.547Z,0.50
2018-09-03T04:44:51.612Z,0.60
2018-09-03T04:47:19.659Z,0.60
2018-09-03T04:49:47.725Z,0.50
2018-09-03T04:52:15.775Z,0.40
2018-09-03T04:54:43.911Z,0.50
2018-09-03T04:57:11.920Z,0.50
2018-09-03T04:59:39.986Z,0.50
2018-09-03T05:02:08.048Z,0.57
2018-09-03T05:04:36.142Z,0.53
2018-09-03T05:07:04.210Z,0.40
2018-09-03T05:09:32.305Z,0.40
2018-09-03T05:12:00.395Z,0.47
2018-09-03T05:14:28.455Z,0.40
2018-09-03T05:16:56.571Z,0.50
2018-09-03T05:19:24.760Z,0.37
2018-09-03T05:21:53.207Z,0.40
2018-09-03T05:24:22.763Z,0.50
2018-09-03T05:26:51.011Z,0.43
2018-09-03T05:29:20.842Z,0.50
2018-09-03T05:31:50.161Z,0.47
2018-09-03T05:34:18.562Z,0.40
2018-09-03T05:36:46.691Z,0.50
2018-09-03T05:39:18.757Z,0.50
2018-09-03T05:41:46.854Z,0.50
2018-09-03T05:44:14.947Z,0.50
2018-09-03T05:46:43.039Z,0.50
2018-09-03T05:49:11.139Z,0.60
2018-09-03T05:51:39.235Z,0.50
2018-09-03T05:54:08.043Z,0.47
2018-09-03T05:56:37.723Z,0.50
2018-09-03T05:59:06.044Z,0.60
2018-09-03T06:01:34.143Z,0.37
2018-09-03T06:04:04.928Z,0.30
2018-09-03T06:06:32.995Z,0.40
2018-09-03T06:09:01.085Z,0.57
2018-09-03T06:11:31.495Z,0.40
2018-09-03T06:13:59.653Z,0.57
2018-09-03T06:16:27.719Z,0.50
2018-09-03T06:18:55.799Z,0.50
2018-09-03T06:21:23.889Z,0.43
2018-09-03T06:23:52.027Z,0.40
2018-09-03T06:26:20.155Z,0.23
2018-09-03T06:28:48.307Z,0.40
2018-09-03T06:31:16.664Z,0.50
2018-09-03T06:33:44.747Z,0.37
2018-09-03T06:36:12.803Z,0.50
2018-09-03T06:38:40.870Z,0.50
2018-09-03T06:41:08.994Z,0.43
2018-09-03T06:43:37.043Z,0.50
2018-09-03T06:46:05.140Z,0.30
2018-09-03T06:48:33.219Z,0.47
2018-09-03T06:51:01.521Z,0.40
2018-09-03T06:53:29.627Z,0.33
2018-09-03T06:55:57.672Z,0.60
2018-09-03T06:58:25.736Z,0.63
2018-09-03T07:00:58.500Z,0.70
2018-09-03T07:03:26.575Z,0.40
2018-09-03T07:05:54.647Z,0.50
2018-09-03T07:08:23.830Z,0.60
2018-09-03T07:10:51.926Z,0.50
2018-09-03T07:13:20.087Z,0.60
2018-09-03T07:15:48.819Z,0.40
2018-09-03T07:18:17.545Z,0.50
2018-09-03T07:20:45.700Z,0.40
2018-09-03T07:23:13.743Z,0.60
2018-09-03T07:25:41.881Z,0.60
2018-09-03T07:28:11.254Z,0.20
2018-09-03T07:30:39.339Z,0.40
2018-09-03T07:33:07.407Z,0.50
2018-09-03T07:35:35.544Z,0.50
2018-09-03T07:38:03.563Z,0.50
2018-09-03T07:40:31.646Z,0.83
2018-09-03T07:42:59.723Z,0.60
2018-09-03T07:45:29.773Z,0.30
2018-09-03T07:47:57.834Z,0.50
2018-09-03T07:50:25.923Z,0.63
2018-09-03T07:52:54.102Z,0.40
2018-09-03T07:55:22.168Z,0.40
2018-09-03T07:57:50.263Z,0.50
2018-09-03T08:00:19.435Z,0.50
2018-09-03T08:02:47.642Z,0.43
2018-09-03T08:05:15.815Z,0.50
2018-09-03T08:07:45.023Z,0.30
2018-09-03T08:10:13.119Z,0.50
2018-09-03T08:12:41.863Z,0.60
2018-09-03T08:15:11.519Z,0.40
2018-09-03T08:17:39.795Z,0.50
2018-09-03T08:20:07.875Z,0.60
2018-09-03T08:22:35.943Z,0.50
2018-09-03T08:25:04.026Z,0.50
2018-09-03T08:27:32.164Z,0.40
2018-09-03T08:30:01.000Z,0.50
2018-09-03T08:32:29.089Z,0.57
2018-09-03T08:34:57.154Z,0.40
2018-09-03T08:37:25.324Z,0.40
2018-09-03T08:39:53.389Z,0.60
2018-09-03T08:42:21.613Z,0.43
2018-09-03T08:44:49.746Z,0.50
2018-09-03T08:47:17.799Z,0.60
2018-09-03T08:49:46.122Z,0.50
2018-09-03T08:52:17.242Z,0.40
2018-09-03T08:54:45.406Z,0.30
2018-09-03T08:57:13.479Z,0.40
2018-09-03T08:59:41.551Z,0.40
2018-09-03T09:02:09.640Z,0.50
2018-09-03T09:04:37.749Z,0.60
2018-09-03T09:07:06.836Z,1.50
2018-09-03T09:09:34.940Z,0.50
2018-09-03T09:12:03.342Z,0.50
2018-09-03T09:14:31.399Z,0.50
2018-09-03T09:16:59.483Z,0.73
2018-09-03T09:19:27.570Z,0.50
2018-09-03T09:21:55.735Z,0.50
2018-09-03T09:24:23.897Z,0.30
2018-09-03T09:26:51.967Z,0.30
2018-09-03T09:29:20.047Z,0.40
2018-09-03T09:31:48.145Z,0.40
2018-09-03T09:34:16.226Z,0.50
2018-09-03T09:36:44.297Z,4.17
2018-09-03T09:39:12.402Z,9.53
2018-09-03T09:41:40.471Z,1.63
2018-09-03T09:44:08.538Z,4.03
2018-09-03T09:46:36.610Z,10.33
2018-09-03T09:49:04.694Z,0.90
2018-09-03T09:51:32.786Z,3.27
2018-09-03T09:54:00.855Z,15.17
2018-09-03T09:56:29.157Z,2.17
2018-09-03T09:58:57.231Z,6.03
2018-09-03T10:01:30.811Z,1.67
2018-09-03T10:03:58.902Z,5.90
2018-09-03T10:06:26.960Z,2.80
2018-09-03T10:08:55.026Z,3.50
2018-09-03T10:11:23.087Z,2.43
2018-09-03T10:13:51.180Z,2.23
2018-09-03T10:16:19.234Z,2.03
2018-09-03T10:18:47.303Z,10.07
2018-09-03T10:21:15.375Z,2.13
2018-09-03T10:23:43.477Z,2.83
2018-09-03T10:26:11.610Z,3.77
2018-09-03T10:28:39.627Z,5.20
2018-09-03T10:31:07.702Z,2.87
2018-09-03T10:33:35.806Z,7.60
2018-09-03T10:36:03.914Z,8.37
2018-09-03T10:38:32.136Z,6.10
2018-09-03T10:41:00.183Z,5.17
2018-09-03T10:43:28.266Z,4.00
2018-09-03T10:45:56.320Z,5.10
2018-09-03T10:48:24.489Z,4.57
2018-09-03T10:50:52.541Z,5.97
2018-09-03T10:53:20.590Z,5.07
2018-09-03T10:55:48.652Z,5.53
2018-09-03T10:58:16.761Z,5.27
2018-09-03T11:00:44.806Z,4.83
2018-09-03T11:03:12.902Z,2.33
2018-09-03T11:05:40.983Z,5.67
2018-09-03T11:08:09.058Z,4.10
2018-09-03T11:10:37.118Z,3.20
2018-09-03T11:13:05.273Z,4.73
2018-09-03T11:15:33.307Z,3.50
2018-09-03T11:18:01.373Z,4.70
2018-09-03T11:20:30.258Z,6.53
2018-09-03T11:22:58.964Z,5.70
2018-09-03T11:25:29.441Z,4.33
2018-09-03T11:27:57.494Z,4.70
2018-09-03T11:30:26.122Z,5.77
2018-09-03T11:33:00.540Z,3.07
2018-09-03T11:35:28.661Z,5.37
2018-09-03T11:37:56.776Z,6.47
2018-09-03T11:40:25.367Z,5.67
2018-09-03T11:42:53.442Z,5.37
2018-09-03T11:45:22.546Z,6.83
2018-09-03T11:47:50.654Z,6.30
2018-09-03T11:50:19.510Z,5.23
2018-09-03T11:52:47.564Z,6.50
2018-09-03T11:55:15.833Z,3.17
2018-09-03T11:57:44.003Z,3.90
2018-09-03T12:00:15.962Z,4.30
2018-09-03T12:02:44.452Z,4.10
2018-09-03T12:05:12.519Z,4.10
2018-09-03T12:07:40.579Z,4.10
2018-09-03T12:10:08.631Z,6.10
2018-09-03T12:12:36.950Z,5.10
2018-09-03T12:15:10.363Z,4.03
2018-09-03T12:17:39.479Z,4.40
2018-09-03T12:20:10.516Z,4.90
2018-09-03T12:22:38.566Z,4.80
2018-09-03T12:25:06.650Z,3.83
2018-09-03T12:27:34.758Z,4.40
2018-09-03T12:30:03.266Z,3.53
2018-09-03T12:32:31.385Z,3.90
2018-09-03T12:34:59.661Z,2.17
2018-09-03T12:37:27.715Z,7.33
2018-09-03T12:39:55.848Z,2.90
2018-09-03T12:42:23.911Z,7.13
2018-09-03T12:44:52.186Z,8.47
2018-09-03T12:47:20.287Z,8.33
2018-09-03T12:49:48.392Z,7.10
2018-09-03T12:52:16.447Z,7.57
2018-09-03T12:54:44.542Z,8.70
2018-09-03T12:57:12.624Z,8.60
2018-09-03T12:59:40.918Z,7.27
2018-09-03T13:02:10.014Z,9.00
2018-09-03T13:04:38.203Z,10.77
2018-09-03T13:07:07.027Z,9.20
2018-09-03T13:09:35.166Z,7.70
2018-09-03T13:12:03.403Z,8.23
2018-09-03T13:14:32.103Z,8.83
2018-09-03T13:17:00.594Z,11.27
2018-09-03T13:19:28.643Z,8.97
2018-09-03T13:21:57.075Z,9.50
2018-09-03T13:24:28.359Z,10.47
2018-09-03T13:26:56.553Z,10.37
2018-09-03T13:29:24.615Z,13.93
2018-09-03T13:31:52.709Z,11.20
2018-09-03T13:34:22.333Z,9.80
2018-09-03T13:36:50.664Z,11.50
2018-09-03T13:39:18.758Z,11.07
2018-09-03T13:41:46.882Z,9.67
2018-09-03T13:44:15.248Z,11.17
2018-09-03T13:46:44.641Z,13.13
2018-09-03T13:49:12.708Z,12.73
2018-09-03T13:51:40.791Z,11.30
2018-09-03T13:54:08.899Z,11.20
2018-09-03T13:56:37.076Z,12.07
2018-09-03T13:59:05.283Z,11.93
2018-09-03T14:01:33.386Z,10.30
2018-09-03T14:04:01.527Z,12.07
2018-09-03T14:06:29.651Z,11.03
2018-09-03T14:09:00.737Z,11.67
2018-09-03T14:11:28.911Z,13.53
2018-09-03T14:13:57.082Z,11.27
2018-09-03T14:16:25.243Z,11.23
2018-09-03T14:18:53.591Z,11.00
2018-09-03T14:21:21.674Z,10.10
2018-09-03T14:23:49.746Z,11.50
2018-09-03T14:26:17.863Z,10.90
2018-09-03T14:28:45.946Z,12.40
2018-09-03T14:31:14.021Z,13.93
2018-09-03T14:33:42.097Z,11.93
2018-09-03T14:36:10.460Z,11.00
2018-09-03T14:38:38.536Z,10.97
2018-09-03T14:41:06.863Z,10.97
2018-09-03T14:43:35.163Z,10.70
2018-09-03T14:46:03.257Z,10.97
2018-09-03T14:48:31.426Z,11.40
2018-09-03T14:50:59.633Z,11.00
2018-09-03T14:53:27.847Z,29.70
2018-09-03T14:55:56.232Z,29.53
2018-09-03T14:58:24.578Z,19.83
2018-09-03T15:00:52.923Z,20.27
2018-09-03T15:03:22.696Z,15.30
2018-09-03T15:05:50.857Z,12.53
2018-09-03T15:08:18.964Z,15.50
2018-09-03T15:10:47.167Z,15.17
2018-09-03T15:13:15.272Z,13.40
2018-09-03T15:15:43.479Z,14.53
2018-09-03T15:18:12.354Z,15.63
2018-09-03T15:20:40.619Z,18.23
2018-09-03T15:23:11.071Z,12.83
2018-09-03T15:25:41.744Z,13.33
2018-09-03T15:28:11.048Z,12.77
2018-09-03T15:30:39.253Z,13.87
2018-09-03T15:33:07.378Z,13.73
2018-09-03T15:35:35.463Z,13.10
2018-09-03T15:38:03.572Z,12.67
2018-09-03T15:40:31.684Z,13.37
2018-09-03T15:42:59.929Z,12.63
2018-09-03T15:45:27.954Z,13.40
2018-09-03T15:47:56.799Z,12.73
2018-09-03T15:50:24.910Z,12.97
2018-09-03T15:52:53.854Z,13.13
2018-09-03T15:55:21.951Z,12.17
2018-09-03T15:57:50.052Z,14.83
2018-09-03T16:00:19.074Z,13.03
2018-09-03T16:02:47.209Z,18.67
2018-09-03T16:05:15.281Z,17.23
2018-09-03T16:07:43.388Z,14.33
2018-09-03T16:10:11.462Z,13.70
2018-09-03T16:12:39.566Z,14.23
2018-09-03T16:15:07.673Z,12.83
2018-09-03T16:17:35.830Z,15.03
2018-09-03T16:20:03.918Z,14.83
2018-09-03T16:22:32.024Z,17.10
2018-09-03T16:25:00.103Z,16.57
2018-09-03T16:27:28.350Z,12.13
2018-09-03T16:29:56.333Z,14.27
2018-09-03T16:32:24.430Z,13.83
2018-09-03T16:34:52.531Z,16.47
2018-09-03T16:37:20.610Z,12.17
2018-09-03T16:39:48.696Z,13.93
2018-09-03T16:42:16.859Z,13.37
2018-09-03T16:44:44.938Z,10.13
2018-09-03T16:47:13.015Z,12.07
2018-09-03T16:49:41.087Z,13.30
2018-09-03T16:52:09.266Z,12.23
2018-09-03T16:54:37.430Z,14.63
2018-09-03T16:57:05.659Z,11.70
2018-09-03T16:59:33.723Z,13.63
2018-09-03T17:02:01.960Z,12.60
2018-09-03T17:04:30.035Z,10.80
2018-09-03T17:06:58.115Z,15.17
2018-09-03T17:09:26.195Z,11.17
2018-09-03T17:11:54.287Z,11.83
2018-09-03T17:14:22.382Z,10.23
2018-09-03T17:16:50.467Z,14.07
2018-09-03T17:19:18.540Z,11.13
2018-09-03T17:21:46.613Z,11.83
2018-09-03T17:24:14.693Z,11.10
2018-09-03T17:26:43.463Z,9.63
2018-09-03T17:29:11.570Z,9.60
2018-09-03T17:31:40.000Z,9.60
2018-09-03T17:34:08.099Z,11.43
2018-09-03T17:36:36.181Z,11.07
2018-09-03T17:39:04.829Z,10.17
2018-09-03T17:41:32.899Z,10.40
2018-09-03T17:44:00.979Z,11.07
2018-09-03T17:46:29.047Z,10.00
2018-09-03T17:48:57.123Z,10.70
2018-09-03T17:51:25.255Z,10.37
2018-09-03T17:53:53.348Z,10.37
2018-09-03T17:56:21.476Z,13.17
2018-09-03T17:58:49.595Z,8.33
2018-09-03T18:01:17.690Z,9.40
2018-09-03T18:03:45.850Z,8.67
2018-09-03T18:06:13.921Z,8.77
2018-09-03T18:08:42.073Z,9.30
2018-09-03T18:11:10.143Z,9.13
2018-09-03T18:13:38.235Z,9.20
2018-09-03T18:16:06.343Z,9.50
2018-09-03T18:18:34.455Z,8.70
2018-09-03T18:21:02.518Z,8.57
2018-09-03T18:23:30.591Z,9.93
2018-09-03T18:25:58.699Z,8.63
2018-09-03T18:28:26.783Z,9.77
2018-09-03T18:30:54.861Z,7.50
2018-09-03T18:33:22.959Z,7.73
2018-09-03T18:35:51.223Z,7.57
2018-09-03T18:38:19.291Z,10.17
2018-09-03T18:40:47.374Z,9.77
2018-09-03T18:43:15.482Z,8.77
2018-09-03T18:45:43.546Z,8.67
2018-09-03T18:48:11.707Z,8.17
2018-09-03T18:50:39.793Z,8.53
2018-09-03T18:53:07.909Z,13.63
2018-09-03T18:55:35.983Z,11.43
2018-09-03T18:58:04.055Z,11.57
2018-09-03T19:00:32.143Z,9.40
2018-09-03T19:03:00.214Z,7.63
2018-09-03T19:05:28.485Z,7.20
2018-09-03T19:07:56.554Z,10.37
2018-09-03T19:10:24.626Z,7.97
2018-09-03T19:12:52.738Z,7.93
2018-09-03T19:15:20.817Z,8.73
2018-09-03T19:17:48.875Z,9.60
2018-09-03T19:20:17.017Z,8.63
2018-09-03T19:22:45.107Z,8.10
2018-09-03T19:25:13.217Z,10.37
2018-09-03T19:27:41.310Z,7.97
2018-09-03T19:30:09.379Z,9.80
2018-09-03T19:32:37.455Z,8.70
2018-09-03T19:35:05.523Z,9.27
2018-09-03T19:37:33.590Z,8.23
2018-09-03T19:40:01.689Z,8.07
2018-09-03T19:42:29.783Z,8.43
2018-09-03T19:44:58.843Z,8.80
2018-09-03T19:47:27.996Z,10.33
2018-09-03T19:49:56.121Z,8.00
2018-09-03T19:52:24.226Z,8.03
2018-09-03T19:54:52.382Z,9.00
2018-09-03T19:57:20.479Z,8.37
2018-09-03T19:59:48.611Z,7.63
2018-09-03T20:02:16.820Z,6.80
2018-09-03T20:04:44.930Z,7.83
2018-09-03T20:07:13.167Z,7.40
2018-09-03T20:09:41.255Z,7.80
2018-09-03T20:12:09.315Z,6.57
2018-09-03T20:14:37.398Z,7.63
2018-09-03T20:17:05.505Z,8.13
2018-09-03T20:19:33.551Z,8.97
2018-09-03T20:22:01.634Z,8.47
2018-09-03T20:24:29.712Z,7.23
2018-09-03T20:26:57.886Z,7.57
2018-09-03T20:29:25.995Z,7.23
2018-09-03T20:31:54.133Z,7.00
2018-09-03T20:34:22.203Z,7.43
2018-09-03T20:36:50.286Z,6.63
2018-09-03T20:39:18.352Z,7.67
2018-09-03T20:41:46.431Z,8.40
2018-09-03T20:44:14.592Z,6.10
2018-09-03T20:46:42.674Z,7.10
2018-09-03T20:49:10.739Z,6.50
2018-09-03T20:51:38.834Z,7.87
2018-09-03T20:54:06.907Z,6.23
2018-09-03T20:56:35.006Z,6.67
2018-09-03T20:59:03.059Z,6.97
2018-09-03T21:01:31.242Z,6.53
2018-09-03T21:03:59.247Z,6.13
2018-09-03T21:06:27.315Z,6.47
2018-09-03T21:08:55.379Z,6.83
2018-09-03T21:11:23.450Z,6.87
2018-09-03T21:13:51.534Z,7.67
2018-09-03T21:16:19.620Z,6.63
2018-09-03T21:18:47.702Z,5.83
2018-09-03T21:21:15.832Z,6.03
2018-09-03T21:23:43.945Z,6.63
2018-09-03T21:26:12.006Z,6.80
2018-09-03T21:28:40.096Z,6.73
2018-09-03T21:31:08.178Z,6.60
2018-09-03T21:33:36.247Z,6.20
2018-09-03T21:36:04.479Z,6.53
2018-09-03T21:38:32.559Z,7.33
2018-09-03T21:41:00.651Z,8.20
2018-09-03T21:43:28.714Z,6.20
2018-09-03T21:45:57.085Z,6.00
2018-09-03T21:48:25.161Z,6.20
2018-09-03T21:50:53.231Z,5.73
2018-09-03T21:53:21.367Z,5.50
2018-09-03T21:55:49.466Z,5.43
2018-09-03T21:58:17.532Z,6.20
2018-09-03T22:00:45.611Z,6.00
2018-09-03T22:03:13.671Z,5.73
2018-09-03T22:05:41.739Z,6.87
2018-09-03T22:08:09.811Z,7.03
2018-09-03T22:10:37.911Z,6.37
2018-09-03T22:13:06.213Z,6.60
2018-09-03T22:15:34.284Z,5.53
2018-09-03T22:18:02.384Z,6.10
2018-09-03T22:20:30.486Z,5.33
2018-09-03T22:22:58.583Z,6.17
2018-09-03T22:25:26.710Z,5.57
2018-09-03T22:27:54.802Z,6.50
2018-09-03T22:30:22.882Z,5.57
2018-09-03T22:32:50.947Z,5.90
2018-09-03T22:35:18.999Z,5.10
2018-09-03T22:37:47.734Z,7.13
2018-09-03T22:40:15.795Z,5.50
2018-09-03T22:42:43.882Z,4.80
2018-09-03T22:45:11.955Z,4.90
2018-09-03T22:47:40.172Z,4.97
2018-09-03T22:50:08.290Z,5.23
2018-09-03T22:52:36.676Z,5.37
2018-09-03T22:55:04.990Z,6.17
2018-09-03T22:57:33.070Z,4.47
2018-09-03T23:00:01.143Z,4.80
2018-09-03T23:02:29.228Z,5.60
2018-09-03T23:04:57.303Z,4.60
2018-09-03T23:07:25.384Z,5.77
2018-09-03T23:09:53.444Z,5.83
2018-09-03T23:12:21.538Z,4.33
2018-09-03T23:14:49.630Z,5.77
2018-09-03T23:17:17.691Z,4.83
2018-09-03T23:19:45.747Z,4.47
2018-09-03T23:22:13.873Z,5.77
2018-09-03T23:24:41.954Z,5.13
2018-09-03T23:27:10.093Z,3.97
2018-09-03T23:29:38.143Z,3.67
2018-09-03T23:32:06.220Z,4.87
2018-09-03T23:34:34.279Z,3.43
2018-09-03T23:37:02.362Z,3.97
2018-09-03T23:39:30.419Z,4.93
2018-09-03T23:41:58.596Z,4.10
2018-09-03T23:44:26.643Z,4.33
2018-09-03T23:46:54.718Z,4.90
2018-09-03T23:49:22.779Z,4.07
2018-09-03T23:51:50.859Z,3.87
2018-09-03T23:54:18.922Z,3.50
2018-09-03T23:56:47.051Z,3.57
2018-09-03T23:59:15.163Z,4.83
